createdAt,value
2022-08-02T00:00:39.414Z,3.13
2022-08-02T00:03:11.165Z,3.38
2022-08-02T00:05:38.824Z,3.60
2022-08-02T00:08:08.147Z,3.65
2022-08-02T00:10:35.566Z,3.22
2022-08-02T00:13:03.040Z,3.22
2022-08-02T00:15:30.779Z,3.63
2022-08-02T00:17:58.578Z,3.13
2022-08-02T00:20:25.832Z,3.42
2022-08-02T00:22:53.534Z,3.75
2022-08-02T00:25:20.800Z,3.60
2022-08-02T00:27:47.952Z,3.55
2022-08-02T00:30:15.705Z,3.47
2022-08-02T00:32:43.468Z,3.90
2022-08-02T00:35:10.700Z,3.70
2022-08-02T00:37:42.037Z,3.80
2022-08-02T00:40:11.788Z,3.55
2022-08-02T00:42:40.442Z,3.40
2022-08-02T00:45:10.254Z,3.63
2022-08-02T00:47:37.584Z,3.58
2022-08-02T00:50:05.564Z,3.78
2022-08-02T00:52:33.269Z,3.80
2022-08-02T00:55:00.393Z,3.90
2022-08-02T00:57:27.835Z,3.97
2022-08-02T00:59:55.054Z,3.90
2022-08-02T01:02:22.452Z,4.78
2022-08-02T01:07:53.645Z,4.18
2022-08-02T01:10:36.438Z,3.85
2022-08-02T01:16:00.716Z,3.88
2022-08-02T01:18:42.205Z,4.35
2022-08-02T01:21:39.251Z,3.90
2022-08-02T01:24:31.063Z,3.97
2022-08-02T01:27:20.396Z,4.00
2022-08-02T01:29:56.618Z,4.13
2022-08-02T01:32:31.716Z,4.05
2022-08-02T01:38:50.380Z,4.22
2022-08-02T01:41:26.107Z,4.00
2022-08-02T01:44:04.474Z,3.47
2022-08-02T01:49:42.049Z,3.40
2022-08-02T01:52:23.642Z,3.80
2022-08-02T01:55:01.662Z,3.47
2022-08-02T01:57:47.991Z,3.72
2022-08-02T02:00:18.137Z,3.88
2022-08-02T02:02:49.459Z,4.10
2022-08-02T02:05:21.095Z,3.95
2022-08-02T02:07:53.920Z,4.05
2022-08-02T02:10:44.240Z,4.07
2022-08-02T02:13:20.063Z,3.97
2022-08-02T02:16:10.624Z,3.58
2022-08-02T02:18:43.887Z,3.80
2022-08-02T02:21:13.893Z,3.78
2022-08-02T02:23:43.597Z,3.75
2022-08-02T02:26:31.039Z,3.30
2022-08-02T02:29:22.196Z,4.05
2022-08-02T02:31:55.072Z,3.60
2022-08-02T02:34:41.068Z,3.35
2022-08-02T02:37:19.062Z,3.58
2022-08-02T02:39:51.516Z,3.80
2022-08-02T02:42:26.497Z,3.63
2022-08-02T02:44:55.612Z,3.55
2022-08-02T02:47:40.689Z,3.40
2022-08-02T02:50:11.402Z,4.15
2022-08-02T02:52:41.855Z,3.67
2022-08-02T02:55:11.383Z,4.18
2022-08-02T02:57:40.696Z,3.65
2022-08-02T03:00:15.510Z,3.75
2022-08-02T03:05:37.535Z,4.03
2022-08-02T03:08:05.444Z,4.63
2022-08-02T03:10:46.579Z,4.80
2022-08-02T03:13:16.203Z,5.37
2022-08-02T03:15:45.794Z,4.78
2022-08-02T03:18:37.625Z,4.95
2022-08-02T03:21:11.943Z,5.03
2022-08-02T03:24:01.184Z,5.00
2022-08-02T03:26:46.827Z,5.63
2022-08-02T03:29:14.523Z,5.43
2022-08-02T03:34:34.828Z,5.45
2022-08-02T03:37:03.673Z,6.22
2022-08-02T03:39:32.618Z,5.85
2022-08-02T03:42:01.098Z,6.30
2022-08-02T03:44:29.680Z,6.60
2022-08-02T03:47:10.643Z,5.68
2022-08-02T03:49:54.103Z,6.03
2022-08-02T03:52:34.549Z,5.82
2022-08-02T03:55:02.502Z,5.28
2022-08-02T03:57:30.522Z,5.85
2022-08-02T03:59:57.754Z,6.25
2022-08-02T04:02:25.372Z,5.93
2022-08-02T04:04:52.833Z,6.03
2022-08-02T04:08:34.525Z,5.97
2022-08-02T04:10:08.397Z,5.72
2022-08-02T04:12:36.239Z,5.60
2022-08-02T04:15:06.224Z,5.80
2022-08-02T04:17:43.323Z,5.68
2022-08-02T04:20:22.888Z,5.38
2022-08-02T04:23:22.629Z,5.63
2022-08-02T04:28:58.999Z,6.95
2022-08-02T04:34:15.518Z,6.88
2022-08-02T04:36:43.699Z,6.22
2022-08-02T04:39:11.141Z,6.45
2022-08-02T04:41:44.822Z,5.88
2022-08-02T04:44:14.341Z,6.20
2022-08-02T04:46:44.474Z,7.10
2022-08-02T04:49:12.412Z,7.07
2022-08-02T04:51:43.176Z,6.32
2022-08-02T04:54:11.984Z,6.50
2022-08-02T04:56:40.280Z,6.75
2022-08-02T04:59:08.710Z,6.30
2022-08-02T05:01:36.231Z,6.75
2022-08-02T05:04:04.251Z,6.43
2022-08-02T05:06:33.049Z,5.70
2022-08-02T05:09:00.588Z,5.88
2022-08-02T05:11:36.506Z,6.15
2022-08-02T05:14:06.083Z,5.50
2022-08-02T05:16:33.748Z,5.97
2022-08-02T05:19:02.771Z,5.63
2022-08-02T05:21:32.016Z,6.05
2022-08-02T05:23:59.445Z,6.07
2022-08-02T05:26:26.694Z,6.13
2022-08-02T05:28:54.352Z,6.85
2022-08-02T05:31:22.278Z,6.47
2022-08-02T05:33:49.823Z,6.35
2022-08-02T05:36:18.082Z,7.95
2022-08-02T05:38:49.865Z,7.10
2022-08-02T05:41:20.972Z,7.38
2022-08-02T05:43:48.694Z,8.15
2022-08-02T05:46:16.177Z,7.72
2022-08-02T05:48:45.036Z,7.82
2022-08-02T05:51:22.351Z,7.32
2022-08-02T05:54:11.093Z,7.25
2022-08-02T05:56:56.841Z,7.03
2022-08-02T05:59:42.018Z,7.47
2022-08-02T06:02:40.287Z,7.30
2022-08-02T06:05:15.765Z,6.93
2022-08-02T06:07:46.272Z,6.60
2022-08-02T06:10:16.627Z,6.68
2022-08-02T06:13:14.865Z,6.70
2022-08-02T06:15:53.408Z,6.75
2022-08-02T06:18:33.906Z,5.97
2022-08-02T06:22:34.713Z,7.07
2022-08-02T06:23:57.472Z,6.93
2022-08-02T06:26:28.487Z,7.35
2022-08-02T06:28:58.488Z,6.75
2022-08-02T06:31:28.483Z,7.43
2022-08-02T06:33:57.187Z,7.10
2022-08-02T06:36:46.438Z,7.43
2022-08-02T06:39:27.096Z,6.75
2022-08-02T06:42:00.417Z,7.13
2022-08-02T06:44:49.652Z,6.70
2022-08-02T06:47:18.841Z,6.90
2022-08-02T06:49:51.940Z,6.78
2022-08-02T06:52:31.446Z,7.03
2022-08-02T06:55:01.711Z,6.47
2022-08-02T06:57:30.232Z,6.93
2022-08-02T07:00:01.784Z,7.20
2022-08-02T07:04:58.537Z,6.43
2022-08-02T07:07:27.135Z,6.25
2022-08-02T07:09:56.847Z,6.40
2022-08-02T07:12:33.159Z,6.30
2022-08-02T07:15:07.934Z,6.18
2022-08-02T07:17:36.442Z,6.32
2022-08-02T07:20:05.391Z,6.13
2022-08-02T07:22:33.095Z,6.03
2022-08-02T07:25:03.546Z,5.95
2022-08-02T07:27:32.246Z,6.68
2022-08-02T07:30:00.658Z,6.18
2022-08-02T07:32:32.357Z,6.05
2022-08-02T07:35:06.900Z,6.03
2022-08-02T07:37:55.600Z,6.72
2022-08-02T07:40:27.796Z,6.30
2022-08-02T07:43:03.463Z,6.07
2022-08-02T07:45:35.732Z,5.80
2022-08-02T07:48:04.023Z,6.20
2022-08-02T07:50:33.565Z,6.15
2022-08-02T07:53:02.035Z,6.25
2022-08-02T07:55:39.339Z,5.68
2022-08-02T07:58:13.097Z,5.65
2022-08-02T08:00:44.893Z,6.10
2022-08-02T08:03:13.683Z,6.00
2022-08-02T08:05:42.173Z,5.60
2022-08-02T08:08:15.034Z,5.57
2022-08-02T08:10:47.204Z,5.38
2022-08-02T08:13:16.437Z,5.30
2022-08-02T08:15:52.298Z,4.97
2022-08-02T08:18:23.631Z,5.13
2022-08-02T08:20:51.812Z,5.15
2022-08-02T08:27:57.987Z,4.85
2022-08-02T08:30:25.794Z,4.25
2022-08-02T08:32:52.866Z,4.30
2022-08-02T08:35:20.479Z,4.60
2022-08-02T08:37:48.026Z,4.28
2022-08-02T08:40:19.393Z,4.22
2022-08-02T08:42:47.795Z,4.38
2022-08-02T08:45:17.825Z,4.00
2022-08-02T08:47:55.925Z,4.35
2022-08-02T08:50:26.522Z,4.22
2022-08-02T08:53:04.870Z,4.22
2022-08-02T08:55:34.952Z,3.97
2022-08-02T08:58:04.641Z,3.70
2022-08-02T09:00:35.659Z,3.38
2022-08-02T09:03:06.230Z,3.78
2022-08-02T09:05:39.159Z,3.15
2022-08-02T09:08:07.022Z,3.00
2022-08-02T09:10:45.956Z,3.13
2022-08-02T09:13:44.452Z,2.97
2022-08-02T09:16:14.113Z,2.80
2022-08-02T09:18:47.162Z,2.45
2022-08-02T09:21:17.264Z,2.72
2022-08-02T09:23:52.601Z,2.40
2022-08-02T09:26:24.273Z,2.70
2022-08-02T09:29:01.064Z,2.67
2022-08-02T09:31:28.479Z,2.60
2022-08-02T09:33:59.193Z,2.67
2022-08-02T09:36:37.010Z,2.58
2022-08-02T09:39:07.647Z,2.90
2022-08-02T09:41:38.451Z,2.90
2022-08-02T09:44:18.346Z,2.78
2022-08-02T09:46:46.817Z,3.03
2022-08-02T09:49:17.859Z,2.80
2022-08-02T09:51:54.356Z,3.10
2022-08-02T09:54:28.688Z,3.10
2022-08-02T09:57:01.964Z,3.28
2022-08-02T09:59:33.231Z,3.10
2022-08-02T10:02:04.058Z,3.33
2022-08-02T10:04:34.343Z,3.22
2022-08-02T10:07:23.171Z,3.30
2022-08-02T10:09:52.629Z,3.22
2022-08-02T10:12:23.715Z,3.38
2022-08-02T10:14:52.303Z,3.60
2022-08-02T10:17:21.107Z,3.20
2022-08-02T10:20:03.474Z,3.00
2022-08-02T10:22:35.018Z,3.10
2022-08-02T10:25:04.738Z,3.67
2022-08-02T10:27:55.173Z,3.63
2022-08-02T10:30:26.902Z,3.20
2022-08-02T10:33:06.866Z,3.55
2022-08-02T10:35:41.108Z,3.55
2022-08-02T10:38:14.922Z,3.60
2022-08-02T10:40:56.586Z,3.50
2022-08-02T10:43:36.025Z,3.35
2022-08-02T10:46:34.178Z,3.67
2022-08-02T10:49:38.467Z,3.78
2022-08-02T10:52:11.040Z,3.65
2022-08-02T10:54:48.400Z,3.72
2022-08-02T10:57:33.974Z,4.10
2022-08-02T11:00:12.474Z,3.88
2022-08-02T11:02:53.510Z,4.20
2022-08-02T11:05:43.116Z,4.18
2022-08-02T11:08:21.136Z,5.00
2022-08-02T11:10:48.648Z,5.00
2022-08-02T11:13:20.540Z,5.28
2022-08-02T11:15:52.670Z,5.05
2022-08-02T11:18:23.430Z,4.78
2022-08-02T11:21:40.737Z,4.97
2022-08-02T11:24:38.814Z,4.68
2022-08-02T11:27:09.356Z,4.10
2022-08-02T11:29:42.956Z,4.80
2022-08-02T11:32:30.671Z,4.97
2022-08-02T11:35:03.576Z,4.70
2022-08-02T11:37:37.068Z,4.88
2022-08-02T11:40:19.791Z,4.75
2022-08-02T11:42:53.618Z,5.25
2022-08-02T11:45:29.873Z,5.60
2022-08-02T11:47:57.720Z,5.80
2022-08-02T11:50:30.321Z,6.30
2022-08-02T11:52:58.427Z,5.95
2022-08-02T11:55:31.781Z,5.57
2022-08-02T11:58:04.581Z,5.47
2022-08-02T12:00:32.676Z,5.32
2022-08-02T12:03:00.316Z,5.72
2022-08-02T12:08:18.994Z,5.43
2022-08-02T12:10:50.762Z,5.43
2022-08-02T12:13:21.269Z,5.75
2022-08-02T12:15:48.359Z,5.93
2022-08-02T12:18:38.889Z,5.82
2022-08-02T12:21:28.401Z,6.15
2022-08-02T12:24:01.003Z,6.20
2022-08-02T12:26:30.018Z,6.43
2022-08-02T12:28:59.607Z,6.57
2022-08-02T12:31:57.088Z,6.50
2022-08-02T12:34:32.207Z,6.60
2022-08-02T12:37:09.469Z,6.22
2022-08-02T12:39:49.948Z,5.80
2022-08-02T12:42:17.304Z,5.88
2022-08-02T12:45:00.103Z,5.50
2022-08-02T12:47:31.417Z,5.68
2022-08-02T12:50:34.821Z,6.57
2022-08-02T12:53:20.030Z,5.85
2022-08-02T12:56:02.050Z,6.53
2022-08-02T12:58:46.074Z,6.40
2022-08-02T13:01:23.826Z,6.65
2022-08-02T13:04:07.779Z,6.15
2022-08-02T13:06:45.586Z,5.78
2022-08-02T13:09:17.413Z,5.90
2022-08-02T13:11:46.312Z,6.10
2022-08-02T13:14:14.897Z,6.20
2022-08-02T13:16:44.504Z,6.18
2022-08-02T13:19:15.096Z,5.78
2022-08-02T13:22:01.515Z,5.68
2022-08-02T13:24:38.386Z,5.72
2022-08-02T13:27:08.590Z,5.43
2022-08-02T13:29:39.846Z,5.68
2022-08-02T13:32:07.126Z,4.93
2022-08-02T13:34:34.384Z,5.32
2022-08-02T13:37:03.266Z,5.05
2022-08-02T13:39:30.661Z,4.65
2022-08-02T13:41:57.846Z,4.82
2022-08-02T13:44:25.505Z,5.13
2022-08-02T13:46:52.711Z,4.80
2022-08-02T13:49:21.950Z,4.78
2022-08-02T13:52:11.956Z,4.25
2022-08-02T13:54:39.495Z,4.68
2022-08-02T13:57:06.858Z,4.10
2022-08-02T13:59:56.032Z,4.00
2022-08-02T14:02:22.205Z,4.05
2022-08-02T14:04:49.822Z,3.70
2022-08-02T14:07:17.126Z,3.88
2022-08-02T14:09:44.273Z,4.10
2022-08-02T14:12:17.857Z,4.10
2022-08-02T14:14:45.056Z,3.78
2022-08-02T14:17:13.603Z,3.90
2022-08-02T14:19:40.816Z,3.80
2022-08-02T14:22:21.119Z,3.72
2022-08-02T14:24:48.994Z,4.05
2022-08-02T14:27:16.523Z,4.10
2022-08-02T14:29:43.856Z,3.72
2022-08-02T14:32:11.836Z,3.92
2022-08-02T14:34:39.518Z,4.20
2022-08-02T14:37:06.617Z,3.85
2022-08-02T14:39:43.400Z,3.72
2022-08-02T14:42:21.802Z,3.70
2022-08-02T14:44:49.330Z,3.83
2022-08-02T14:47:16.563Z,4.47
2022-08-02T14:49:48.321Z,4.32
2022-08-02T14:52:17.852Z,4.20
2022-08-02T14:54:45.212Z,4.40
2022-08-02T14:57:14.548Z,4.63
2022-08-02T14:59:42.754Z,4.90
2022-08-02T15:02:11.856Z,4.80
2022-08-02T15:04:42.829Z,5.03
2022-08-02T15:07:12.188Z,4.88
2022-08-02T15:09:40.145Z,4.75
2022-08-02T15:12:09.616Z,5.07
2022-08-02T15:14:46.033Z,4.85
2022-08-02T15:17:13.417Z,4.93
2022-08-02T15:19:58.036Z,4.70
2022-08-02T15:22:29.355Z,4.70
2022-08-02T15:24:58.671Z,4.47
2022-08-02T15:27:26.003Z,4.25
2022-08-02T15:30:00.045Z,4.40
2022-08-02T15:32:28.327Z,4.00
2022-08-02T15:34:55.763Z,4.22
2022-08-02T15:37:22.919Z,3.97
2022-08-02T15:39:53.048Z,3.80
2022-08-02T15:42:30.519Z,3.90
2022-08-02T15:44:59.503Z,4.28
2022-08-02T15:47:26.672Z,4.00
2022-08-02T15:49:53.952Z,4.72
2022-08-02T15:52:21.601Z,4.07
2022-08-02T15:54:48.866Z,4.00
2022-08-02T15:57:16.016Z,4.20
2022-08-02T15:59:44.178Z,4.30
2022-08-02T16:02:11.754Z,4.28
2022-08-02T16:04:39.444Z,4.40
2022-08-02T16:07:06.954Z,4.50
2022-08-02T16:09:34.163Z,3.88
2022-08-02T16:12:01.586Z,4.32
2022-08-02T16:14:29.577Z,4.25
2022-08-02T16:16:59.652Z,3.97
2022-08-02T16:19:30.679Z,4.15
2022-08-02T16:22:16.088Z,3.90
2022-08-02T16:24:45.515Z,3.80
2022-08-02T16:27:13.195Z,3.33
2022-08-02T16:29:40.819Z,3.50
2022-08-02T16:32:08.727Z,3.22
2022-08-02T16:34:57.181Z,3.10
2022-08-02T16:37:23.857Z,3.47
2022-08-02T16:39:51.357Z,3.47
2022-08-02T16:42:25.586Z,3.67
2022-08-02T16:44:54.775Z,3.42
2022-08-02T16:47:36.996Z,3.35
2022-08-02T16:50:11.637Z,3.38
2022-08-02T16:52:39.369Z,3.20
2022-08-02T16:55:10.891Z,3.40
2022-08-02T16:57:43.524Z,3.40
2022-08-02T17:00:17.649Z,3.00
2022-08-02T17:02:47.044Z,3.20
2022-08-02T17:05:15.177Z,3.35
2022-08-02T17:08:07.263Z,2.95
2022-08-02T17:10:34.290Z,3.13
2022-08-02T17:13:11.199Z,3.08
2022-08-02T17:16:01.589Z,3.17
2022-08-02T17:18:29.854Z,3.17
2022-08-02T17:20:58.068Z,3.10
2022-08-02T17:24:05.579Z,2.70
2022-08-02T17:26:13.722Z,3.08
2022-08-02T17:29:07.010Z,2.80
2022-08-02T17:31:30.273Z,2.78
2022-08-02T17:34:10.513Z,2.95
2022-08-02T17:36:38.946Z,3.00
2022-08-02T17:39:07.517Z,2.95
2022-08-02T17:41:37.726Z,2.83
2022-08-02T17:44:08.617Z,2.97
2022-08-02T17:46:36.058Z,3.30
2022-08-02T17:49:17.393Z,3.10
2022-08-02T17:52:48.403Z,3.13
2022-08-02T17:54:33.659Z,2.97
2022-08-02T17:57:01.255Z,3.00
2022-08-02T17:59:41.606Z,3.00
2022-08-02T18:02:11.124Z,2.85
2022-08-02T18:04:38.733Z,3.20
2022-08-02T18:07:09.377Z,3.10
2022-08-02T18:09:37.633Z,3.20
2022-08-02T18:12:14.490Z,3.10
2022-08-02T18:15:01.503Z,2.58
2022-08-02T18:17:34.749Z,2.67
2022-08-02T18:20:10.176Z,2.80
2022-08-02T18:22:39.791Z,2.75
2022-08-02T18:25:18.411Z,3.13
2022-08-02T18:27:59.155Z,3.10
2022-08-02T18:30:28.345Z,3.30
2022-08-02T18:33:58.317Z,2.88
2022-08-02T18:35:43.927Z,2.88
2022-08-02T18:38:11.797Z,3.00
2022-08-02T18:40:39.313Z,3.05
2022-08-02T18:43:10.739Z,2.80
2022-08-02T18:46:05.485Z,3.00
2022-08-02T18:48:29.972Z,3.00
2022-08-02T18:50:57.644Z,2.95
2022-08-02T18:53:28.288Z,2.95
2022-08-02T18:56:20.187Z,3.00
2022-08-02T18:59:03.144Z,3.05
2022-08-02T19:15:02.443Z,3.08
2022-08-02T19:17:54.882Z,3.08
2022-08-02T19:20:19.391Z,3.15
2022-08-02T19:22:47.136Z,3.38
2022-08-02T19:25:45.215Z,2.90
2022-08-02T19:28:26.225Z,3.47
2022-08-02T19:31:17.954Z,3.60
2022-08-02T19:34:07.526Z,3.30
2022-08-02T19:36:46.633Z,3.50
2022-08-02T19:42:05.329Z,4.10
2022-08-02T19:44:33.796Z,4.03
2022-08-02T19:47:01.664Z,4.85
2022-08-02T19:49:39.682Z,4.53
2022-08-02T19:52:25.259Z,4.68
2022-08-02T19:54:55.816Z,4.60
2022-08-02T19:57:25.374Z,4.37
2022-08-02T20:00:06.847Z,4.18
2022-08-02T20:04:40.411Z,4.30
2022-08-02T20:07:53.930Z,3.90
2022-08-02T20:10:12.267Z,4.20
2022-08-02T20:12:54.436Z,4.18
2022-08-02T20:15:56.171Z,4.15
2022-08-02T20:21:59.800Z,4.43
2022-08-02T20:25:07.960Z,4.18
2022-08-02T20:35:21.588Z,4.10
2022-08-02T20:38:00.577Z,4.40
2022-08-02T20:40:30.575Z,4.40
2022-08-02T20:42:58.670Z,4.18
2022-08-02T20:45:27.861Z,4.05
2022-08-02T20:47:58.589Z,4.50
2022-08-02T20:53:23.584Z,4.32
2022-08-02T20:56:04.163Z,3.90
2022-08-02T20:59:03.927Z,4.15
2022-08-02T21:11:09.390Z,3.97
2022-08-02T21:13:47.156Z,4.00
2022-08-02T21:20:27.552Z,4.25
2022-08-02T21:23:02.172Z,4.00
2022-08-02T21:25:42.532Z,4.18
2022-08-02T21:31:30.101Z,4.07
2022-08-02T21:34:01.165Z,4.10
2022-08-02T21:36:32.684Z,4.28
2022-08-02T21:39:18.514Z,4.10
2022-08-02T21:41:47.399Z,3.90
2022-08-02T21:44:24.211Z,3.72
2022-08-02T21:54:28.044Z,4.03
2022-08-02T21:56:56.389Z,3.80
2022-08-02T21:59:26.799Z,3.90
2022-08-02T22:01:57.996Z,3.72
2022-08-02T22:04:26.961Z,3.92
2022-08-02T22:06:57.576Z,4.28
2022-08-02T22:09:42.450Z,4.10
2022-08-02T22:12:16.524Z,4.10
2022-08-02T22:14:53.826Z,3.80
2022-08-02T22:17:53.672Z,3.90
2022-08-02T22:20:29.152Z,3.95
2022-08-02T22:22:56.717Z,4.25
2022-08-02T22:28:37.093Z,3.78
2022-08-02T22:31:06.636Z,4.05
2022-08-02T22:34:01.304Z,4.40
2022-08-02T22:36:38.753Z,4.10
2022-08-02T22:44:24.466Z,3.80
2022-08-02T22:46:52.030Z,3.85
2022-08-02T22:49:38.212Z,3.65
2022-08-02T22:52:16.827Z,4.05
2022-08-02T22:54:48.165Z,4.03
2022-08-02T22:57:15.804Z,3.60
2022-08-02T22:59:02.908Z,4.00
2022-08-02T22:59:06.782Z,3.55
2022-08-02T22:59:12.948Z,4.20
2022-08-02T22:59:43.407Z,3.88
2022-08-02T23:02:11.124Z,4.13
2022-08-02T23:04:39.408Z,3.88
2022-08-02T23:07:06.814Z,3.58
2022-08-02T23:14:19.034Z,4.00
2022-08-02T23:17:09.556Z,4.00
2022-08-02T23:23:22.739Z,3.75
2022-08-02T23:25:49.833Z,3.80
2022-08-02T23:28:17.160Z,3.90
2022-08-02T23:30:44.761Z,3.90
2022-08-02T23:33:14.549Z,3.95
2022-08-02T23:35:42.417Z,3.92
2022-08-02T23:38:15.076Z,4.00
2022-08-02T23:40:42.314Z,3.90
2022-08-02T23:43:13.352Z,3.83
2022-08-02T23:45:48.169Z,3.57
2022-08-02T23:48:16.239Z,3.55
2022-08-02T23:50:47.183Z,3.72
2022-08-02T23:53:39.479Z,3.55
